Date,TemperatureHighF,TemperatureAvgF,TemperatureLowF,DewpointHighF,DewpointAvgF,DewpointLowF,HumidityHigh,HumidityAvg,HumidityLow,PressureMaxIn,PressureMinIn,WindSpeedMaxMPH,WindSpeedAvgMPH,GustSpeedMaxMPH,PrecipitationSumIn
2013-2-1,75.0,72.2,67.0,69.0,66.9,61.0,95,84,77,30.14,30.03,16,9,23,0.19
2013-2-2,74.0,70.0,63.0,65.0,61.2,57.0,83,74,66,30.19,30.08,10,5,17,0.01
2013-2-3,76.0,70.2,64.0,63.0,60.0,57.0,80,71,59,30.19,30.07,11,6,21,0.00
2013-2-4,75.0,70.8,65.0,67.0,64.0,61.0,92,79,68,30.15,30.04,17,8,23,0.02
2013-2-5,74.0,70.7,65.0,67.0,64.9,63.0,94,82,74,30.11,30.01,13,6,20,0.44
2013-2-6,75.0,69.0,64.0,71.0,66.5,63.0,96,92,83,30.09,30.01,10,4,17,0.70
2013-2-7,74.0,71.5,66.0,71.0,68.3,65.0,96,90,83,30.14,30.04,12,5,19,2.98
2013-2-8,77.0,71.8,66.0,70.0,67.1,63.0,91,85,77,30.15,30.04,9,3,15,0.13
2013-2-9,76.0,70.1,62.0,69.0,65.9,60.0,93,86,80,30.16,30.05,10,5,16,0.00
2013-2-10,76.0,72.2,66.0,69.0,66.8,63.0,91,83,76,30.21,30.11,8,5,13,0.00
2013-2-11,72.0,68.0,65.0,67.0,64.2,62.0,91,88,82,30.20,30.17,8,3,12,0.01
2013-2-12,71.0,67.6,65.0,65.0,63.3,62.0,91,86,78,30.15,30.12,10,5,16,0.03
2013-2-13,75.0,71.2,65.0,63.0,59.7,54.0,81,67,52,30.14,30.03,11,7,18,0.03
2013-2-14,75.0,68.6,62.0,64.0,61.3,59.0,90,78,65,30.11,30.01,9,4,14,0.00
2013-2-15,74.0,66.2,60.0,69.0,62.4,56.0,95,88,72,30.13,30.03,9,3,23,1.07
2013-2-16,73.0,70.1,64.0,68.0,65.2,61.0,96,85,77,30.16,30.07,19,10,31,0.70
2013-2-17,72.0,69.3,63.0,67.0,64.3,60.0,91,84,75,30.19,30.09,17,8,28,0.21
2013-2-18,72.0,70.0,67.0,67.0,65.1,62.0,93,84,73,30.17,30.07,21,10,33,0.19
2013-2-19,74.0,70.6,67.0,67.0,64.7,62.0,90,82,76,30.17,30.06,21,8,28,0.12
2013-2-20,74.0,70.3,64.0,68.0,65.8,62.0,96,86,78,30.16,30.07,13,7,20,0.13
2013-2-21,74.0,68.1,63.0,70.0,66.2,62.0,96,93,87,30.17,30.05,13,4,20,1.98
2013-2-22,69.0,66.0,63.0,68.0,65.0,62.0,98,96,94,30.16,30.06,10,2,17,5.72
2013-2-23,67.0,64.8,63.0,66.0,63.8,62.0,98,97,95,30.18,30.09,11,3,21,4.21
2013-2-24,73.0,71.5,69.0,68.0,66.2,65.0,88,83,80,30.13,30.03,15,11,22,0.23
2013-2-25,73.0,69.0,64.0,69.0,65.6,62.0,94,89,81,30.17,30.06,16,6,24,0.51
2013-2-26,76.0,69.7,63.0,67.0,64.7,60.0,94,84,74,30.18,30.10,14,6,21,0.17
2013-2-27,74.0,71.3,68.0,66.0,64.3,63.0,90,79,73,30.22,30.13,14,8,20,0.03
2013-2-28,74.0,69.5,62.0,66.0,62.0,57.0,85,78,69,30.22,30.10,16,7,22,0.01